createdAt,value
2022-12-11T00:00:25.600Z,99609.59
2022-12-11T00:02:29.728Z,99593.50
2022-12-11T00:04:32.358Z,99583.84
2022-12-11T00:06:34.912Z,99571.88
2022-12-11T00:08:37.771Z,99584.00
2022-12-11T00:10:40.389Z,99571.22
2022-12-11T00:12:42.942Z,99574.91
2022-12-11T00:14:45.602Z,99562.94
2022-12-11T00:16:49.750Z,99573.91
2022-12-11T00:18:52.410Z,99567.94
2022-12-11T00:20:54.909Z,99557.22
2022-12-11T00:22:57.468Z,99571.81
2022-12-11T00:25:00.075Z,99566.88
2022-12-11T00:27:02.751Z,99558.84
2022-12-11T00:29:05.352Z,99553.47
2022-12-11T00:31:11.653Z,99551.63
2022-12-11T00:33:15.455Z,99542.78
2022-12-11T00:35:18.076Z,99541.75
2022-12-11T00:37:20.795Z,99536.81
2022-12-11T00:39:23.348Z,99530.03
2022-12-11T00:41:25.849Z,99535.53
2022-12-11T00:43:28.502Z,99531.25
2022-12-11T00:45:31.060Z,99520.72
2022-12-11T00:47:33.589Z,99520.31
2022-12-11T00:49:36.281Z,99518.44
2022-12-11T00:51:38.865Z,99520.47
2022-12-11T00:53:41.473Z,99508.09
2022-12-11T00:55:44.598Z,99514.28
2022-12-11T00:57:47.512Z,99506.00
2022-12-11T00:59:50.008Z,99515.47
2022-12-11T01:01:52.995Z,99511.31
2022-12-11T01:03:55.533Z,99520.34
2022-12-11T01:05:58.054Z,99513.13
2022-12-11T01:08:00.705Z,99501.81
2022-12-11T01:10:22.882Z,99490.69
2022-12-11T01:12:26.901Z,99484.31
2022-12-11T01:14:29.432Z,99484.72
2022-12-11T01:16:32.063Z,99476.28
2022-12-11T01:18:34.852Z,99477.09
2022-12-11T01:20:40.118Z,99476.28
2022-12-11T01:22:42.716Z,99478.50
2022-12-11T01:24:45.244Z,99463.03
2022-12-11T01:26:47.874Z,99464.66
2022-12-11T01:28:51.913Z,99462.56
2022-12-11T01:30:54.426Z,99457.00
2022-12-11T01:32:57.007Z,99464.59
2022-12-11T01:34:59.958Z,99451.84
2022-12-11T01:37:02.711Z,99443.00
2022-12-11T01:39:05.312Z,99440.31
2022-12-11T01:41:08.922Z,99431.00
2022-12-11T01:43:12.075Z,99418.41
2022-12-11T01:45:39.142Z,99432.50
2022-12-11T01:47:41.840Z,99413.66
2022-12-11T01:49:44.639Z,99405.25
2022-12-11T01:52:03.346Z,99411.78
2022-12-11T01:54:11.644Z,99417.59
2022-12-11T01:56:15.277Z,99388.13
2022-12-11T01:58:19.708Z,99391.41
2022-12-11T02:00:22.383Z,99384.56
2022-12-11T02:02:34.313Z,99384.56
2022-12-11T02:04:39.360Z,99385.38
2022-12-11T02:06:45.091Z,99379.13
2022-12-11T02:08:47.722Z,99377.47
2022-12-11T02:11:16.292Z,99377.38
2022-12-11T02:13:27.065Z,99381.94
2022-12-11T02:15:29.653Z,99377.38
2022-12-11T02:17:44.472Z,99383.34
2022-12-11T02:20:06.022Z,99378.44
2022-12-11T02:22:17.504Z,99381.84
2022-12-11T02:24:55.542Z,99359.56
2022-12-11T02:26:58.018Z,99372.53
2022-12-11T02:29:08.780Z,99363.09
2022-12-11T02:31:27.999Z,99363.91
2022-12-11T02:33:42.549Z,99353.09
2022-12-11T02:35:46.938Z,99339.91
2022-12-11T02:37:56.460Z,99350.63
2022-12-11T02:39:59.057Z,99323.81
2022-12-11T02:42:03.750Z,99330.72
2022-12-11T02:44:07.008Z,99315.69
2022-12-11T02:46:09.832Z,99339.22
2022-12-11T02:48:14.242Z,99348.88
2022-12-11T02:50:21.330Z,99345.63
2022-12-11T02:52:26.003Z,99355.31
2022-12-11T02:54:33.601Z,99360.47
2022-12-11T02:56:50.904Z,99364.84
2022-12-11T02:59:01.538Z,99361.03
2022-12-11T03:01:04.571Z,99361.88
2022-12-11T03:03:07.352Z,99366.75
2022-12-11T03:05:12.538Z,99358.72
2022-12-11T03:07:23.675Z,99361.19
2022-12-11T03:09:28.146Z,99357.09
2022-12-11T03:11:30.761Z,99348.78
2022-12-11T03:13:33.378Z,99361.41
2022-12-11T03:15:54.727Z,99356.03
2022-12-11T03:18:13.172Z,99345.78
2022-12-11T03:20:29.878Z,99368.38
2022-12-11T03:22:47.742Z,99357.09
2022-12-11T03:25:01.245Z,99351.00
2022-12-11T03:27:27.637Z,99362.06
2022-12-11T03:29:39.729Z,99349.25
2022-12-11T03:31:47.587Z,99354.63
2022-12-11T03:33:55.094Z,99358.13
2022-12-11T03:36:05.823Z,99371.31
2022-12-11T03:38:14.133Z,99366.75
2022-12-11T03:40:19.431Z,99354.28
2022-12-11T03:42:24.495Z,99361.78
2022-12-11T03:44:29.118Z,99365.88
2022-12-11T03:46:36.662Z,99385.44
2022-12-11T03:48:42.491Z,99379.16
2022-12-11T03:50:48.523Z,99371.09
2022-12-11T03:52:52.502Z,99369.84
2022-12-11T03:54:59.653Z,99377.66
2022-12-11T03:57:04.364Z,99393.28
2022-12-11T03:59:06.944Z,99372.66
2022-12-11T04:01:11.221Z,99378.47
2022-12-11T04:03:14.548Z,99381.41
2022-12-11T04:05:17.515Z,99383.13
2022-12-11T04:07:20.034Z,99383.13
2022-12-11T04:09:22.568Z,99378.34
2022-12-11T04:11:37.046Z,99386.63
2022-12-11T04:13:41.338Z,99386.72
2022-12-11T04:15:43.963Z,99370.16
2022-12-11T04:18:05.208Z,99388.25
2022-12-11T04:20:27.134Z,99367.88
2022-12-11T04:22:48.044Z,99386.03
2022-12-11T04:24:51.392Z,99383.50
2022-12-11T04:26:53.976Z,99385.97
2022-12-11T04:28:56.480Z,99367.88
2022-12-11T04:30:59.088Z,99367.41
2022-12-11T04:33:02.165Z,99360.97
2022-12-11T04:35:06.732Z,99367.19
2022-12-11T04:37:09.583Z,99362.63
2022-12-11T04:39:12.152Z,99345.69
2022-12-11T04:41:16.189Z,99379.06
2022-12-11T04:43:18.788Z,99367.53
2022-12-11T04:45:21.456Z,99394.94
2022-12-11T04:47:24.145Z,99383.16
2022-12-11T04:49:26.839Z,99389.78
2022-12-11T04:51:30.064Z,99412.22
2022-12-11T04:53:33.091Z,99411.38
2022-12-11T04:55:35.632Z,99412.22
2022-12-11T04:57:38.808Z,99414.91
2022-12-11T04:59:41.395Z,99407.00
2022-12-11T05:01:44.071Z,99417.47
2022-12-11T05:03:47.765Z,99441.78
2022-12-11T05:05:52.404Z,99431.66
2022-12-11T05:07:55.043Z,99435.88
2022-12-11T05:09:57.731Z,99426.41
2022-12-11T05:12:00.541Z,99428.41
2022-12-11T05:14:03.281Z,99419.88
2022-12-11T05:16:08.333Z,99413.13
2022-12-11T05:18:10.935Z,99419.28
2022-12-11T05:20:13.492Z,99427.13
2022-12-11T05:22:16.885Z,99441.72
2022-12-11T05:24:19.503Z,99430.88
2022-12-11T05:26:22.179Z,99434.97
2022-12-11T05:28:26.565Z,99431.03
2022-12-11T05:30:29.084Z,99455.53
2022-12-11T05:32:31.640Z,99443.97
2022-12-11T05:34:34.347Z,99442.47
2022-12-11T05:36:36.956Z,99433.13
2022-12-11T05:38:39.479Z,99446.44
2022-12-11T05:40:42.276Z,99452.19
2022-12-11T05:42:44.929Z,99445.53
2022-12-11T05:44:49.475Z,99459.53
2022-12-11T05:46:52.171Z,99462.44
2022-12-11T05:48:57.475Z,99462.81
2022-12-11T05:51:01.834Z,99450.78
2022-12-11T05:53:05.571Z,99456.97
2022-12-11T05:55:09.910Z,99467.25
2022-12-11T05:57:12.700Z,99462.25
2022-12-11T05:59:15.667Z,99459.94
2022-12-11T06:01:30.032Z,99456.41
2022-12-11T06:03:32.587Z,99460.16
2022-12-11T06:05:42.868Z,99463.66
2022-12-11T06:07:45.503Z,99468.53
2022-12-11T06:09:48.053Z,99457.00
2022-12-11T06:11:50.566Z,99451.16
2022-12-11T06:13:53.660Z,99462.47
2022-12-11T06:15:59.827Z,99466.56
2022-12-11T06:18:02.402Z,99457.00
2022-12-11T06:20:05.529Z,99457.00
2022-12-11T06:22:08.100Z,99457.38
2022-12-11T06:24:11.247Z,99461.78
2022-12-11T06:26:15.546Z,99455.72
2022-12-11T06:28:18.147Z,99464.13
2022-12-11T06:30:21.425Z,99448.81
2022-12-11T06:32:24.240Z,99469.63
2022-12-11T06:34:26.854Z,99460.28
2022-12-11T06:36:29.429Z,99470.53
2022-12-11T06:38:33.045Z,99467.16
2022-12-11T06:40:35.696Z,99471.81
2022-12-11T06:42:39.128Z,99466.00
2022-12-11T06:44:41.692Z,99471.94
2022-12-11T06:46:44.308Z,99465.63
2022-12-11T06:48:48.199Z,99469.22
2022-12-11T06:50:50.770Z,99451.00
2022-12-11T06:52:53.286Z,99454.84
2022-12-11T06:54:56.220Z,99449.34
2022-12-11T06:56:58.818Z,99445.22
2022-12-11T06:59:06.930Z,99445.72
2022-12-11T07:01:21.747Z,99430.00
2022-12-11T07:03:24.396Z,99431.63
2022-12-11T07:05:26.980Z,99426.59
2022-12-11T07:07:29.595Z,99433.34
2022-12-11T07:09:32.162Z,99426.13
2022-12-11T07:11:34.805Z,99422.69
2022-12-11T07:13:37.536Z,99424.44
2022-12-11T07:15:40.625Z,99408.84
2022-12-11T07:17:43.366Z,99418.09
2022-12-11T07:19:45.937Z,99416.53
2022-12-11T07:21:48.528Z,99413.59
2022-12-11T07:23:51.240Z,99426.56
2022-12-11T07:25:53.945Z,99424.22
2022-12-11T07:27:56.475Z,99414.28
2022-12-11T07:29:59.344Z,99424.56
2022-12-11T07:32:02.071Z,99423.59
2022-12-11T07:34:07.415Z,99427.44
2022-12-11T07:36:12.407Z,99435.75
2022-12-11T07:38:14.956Z,99433.63
2022-12-11T07:40:17.845Z,99448.50
2022-12-11T07:42:20.493Z,99446.63
2022-12-11T07:44:23.552Z,99447.84
2022-12-11T07:46:29.492Z,99446.56
2022-12-11T07:48:33.069Z,99446.81
2022-12-11T07:50:39.728Z,99437.16
2022-12-11T07:52:42.616Z,99438.59
2022-12-11T07:54:45.188Z,99455.63
2022-12-11T07:56:53.199Z,99435.81
2022-12-11T07:59:01.899Z,99441.75
2022-12-11T08:01:05.389Z,99459.06
2022-12-11T08:03:07.946Z,99442.16
2022-12-11T08:05:10.894Z,99448.94
2022-12-11T08:07:14.816Z,99449.53
2022-12-11T08:09:20.967Z,99444.13
2022-12-11T08:11:24.461Z,99445.75
2022-12-11T08:13:27.725Z,99452.78
2022-12-11T08:15:30.685Z,99437.44
2022-12-11T08:17:39.691Z,99441.28
2022-12-11T08:19:42.663Z,99443.97
2022-12-11T08:21:45.441Z,99444.28
2022-12-11T08:23:48.780Z,99430.91
2022-12-11T08:25:51.385Z,99445.66
2022-12-11T08:27:54.045Z,99442.44
2022-12-11T08:29:56.640Z,99447.81
2022-12-11T08:31:59.335Z,99440.03
2022-12-11T08:34:02.168Z,99460.47
2022-12-11T08:36:07.279Z,99461.53
2022-12-11T08:38:10.001Z,99464.81
2022-12-11T08:40:12.748Z,99466.34
2022-12-11T08:42:15.600Z,99468.00
2022-12-11T08:44:18.167Z,99472.25
2022-12-11T08:46:23.976Z,99454.41
2022-12-11T08:48:26.615Z,99470.59
2022-12-11T08:50:29.158Z,99459.56
2022-12-11T08:52:31.861Z,99464.16
2022-12-11T08:54:34.412Z,99467.16
2022-12-11T08:56:36.998Z,99456.72
2022-12-11T08:58:39.717Z,99467.50
2022-12-11T09:00:42.345Z,99455.06
2022-12-11T09:02:45.141Z,99454.25
2022-12-11T09:04:47.784Z,99449.44
2022-12-11T09:06:50.436Z,99464.53
2022-12-11T09:08:54.176Z,99466.44
2022-12-11T09:10:56.820Z,99466.13
2022-12-11T09:12:59.500Z,99457.53
2022-12-11T09:15:02.142Z,99464.53
2022-12-11T09:17:06.666Z,99471.09
2022-12-11T09:19:15.528Z,99473.69
2022-12-11T09:21:21.717Z,99481.56
2022-12-11T09:23:24.349Z,99481.28
2022-12-11T09:25:26.864Z,99491.59
2022-12-11T09:27:29.443Z,99494.88
2022-12-11T09:29:32.689Z,99488.66
2022-12-11T09:31:36.719Z,99493.00
2022-12-11T09:33:39.559Z,99495.59
2022-12-11T09:35:42.273Z,99488.56
2022-12-11T09:37:44.841Z,99495.28
2022-12-11T09:39:47.505Z,99489.88
2022-12-11T09:42:14.989Z,99495.84
2022-12-11T09:44:41.830Z,99495.34
2022-12-11T09:46:46.317Z,99496.41
2022-12-11T09:48:50.287Z,99495.34
2022-12-11T09:50:55.307Z,99491.09
2022-12-11T09:53:08.705Z,99487.59
2022-12-11T09:55:18.068Z,99480.56
2022-12-11T09:57:32.620Z,99486.22
2022-12-11T09:59:53.619Z,99484.09
2022-12-11T10:02:11.178Z,99482.28
2022-12-11T10:04:36.432Z,99487.44
2022-12-11T10:06:48.290Z,99484.16
2022-12-11T10:09:32.447Z,99495.69
2022-12-11T10:11:44.681Z,99494.03
2022-12-11T10:14:02.229Z,99486.06
2022-12-11T10:16:14.364Z,99503.78
2022-12-11T10:18:24.014Z,99496.06
2022-12-11T10:20:39.497Z,99499.59
2022-12-11T10:22:42.264Z,99499.84
2022-12-11T10:25:16.302Z,99496.91
2022-12-11T10:27:21.627Z,99493.31
2022-12-11T10:29:24.580Z,99498.03
2022-12-11T10:31:43.937Z,99497.00
2022-12-11T10:33:53.836Z,99502.38
2022-12-11T10:35:58.360Z,99505.59
2022-12-11T10:38:21.826Z,99495.09
2022-12-11T10:40:29.530Z,99500.41
2022-12-11T10:42:32.203Z,99493.13
2022-12-11T10:44:35.004Z,99496.06
2022-12-11T10:46:37.712Z,99511.44
2022-12-11T10:48:48.461Z,99507.69
2022-12-11T10:51:03.799Z,99480.41
2022-12-11T10:53:06.615Z,99501.16
2022-12-11T10:55:35.508Z,99509.81
2022-12-11T10:57:39.653Z,99511.13
2022-12-11T10:59:50.861Z,99503.28
2022-12-11T11:01:54.056Z,99509.25
2022-12-11T11:04:04.909Z,99512.75
2022-12-11T11:06:19.655Z,99509.25
2022-12-11T11:08:23.042Z,99501.97
2022-12-11T11:10:25.832Z,99513.00
2022-12-11T11:12:28.609Z,99502.97
2022-12-11T11:14:31.302Z,99508.59
2022-12-11T11:16:38.370Z,99524.25
2022-12-11T11:18:42.294Z,99508.59
2022-12-11T11:20:48.310Z,99499.34
2022-12-11T11:22:54.425Z,99515.53
2022-12-11T11:24:59.020Z,99509.25
2022-12-11T11:27:13.217Z,99504.97
2022-12-11T11:29:37.882Z,99499.59
2022-12-11T11:31:42.528Z,99508.16
2022-12-11T11:34:10.960Z,99506.03
2022-12-11T11:36:25.666Z,99514.94
2022-12-11T11:38:59.853Z,99526.31
2022-12-11T11:41:23.904Z,99529.50
2022-12-11T11:43:55.503Z,99532.19
2022-12-11T11:46:02.265Z,99528.44
2022-12-11T11:48:30.544Z,99526.00
2022-12-11T11:50:35.920Z,99525.81
2022-12-11T11:53:07.299Z,99525.81
2022-12-11T11:55:22.659Z,99520.91
2022-12-11T11:57:42.711Z,99529.22
2022-12-11T11:59:49.785Z,99530.88
2022-12-11T12:01:56.385Z,99538.97
2022-12-11T12:04:01.408Z,99536.84
2022-12-11T12:06:50.874Z,99538.75
2022-12-11T12:09:34.217Z,99547.16
2022-12-11T12:11:54.625Z,99548.78
2022-12-11T12:14:43.613Z,99548.06
2022-12-11T12:17:22.525Z,99551.31
2022-12-11T12:19:38.922Z,99553.78
2022-12-11T12:21:51.360Z,99563.47
2022-12-11T12:24:23.520Z,99563.41
2022-12-11T12:26:33.204Z,99560.47
2022-12-11T12:29:13.123Z,99571.25
2022-12-11T12:31:42.141Z,99578.63
2022-12-11T12:33:50.543Z,99568.31
2022-12-11T12:36:06.640Z,99573.97
2022-12-11T12:38:41.973Z,99577.47
2022-12-11T12:40:56.001Z,99575.09
2022-12-11T12:43:14.688Z,99577.81
2022-12-11T12:45:32.989Z,99581.22
2022-12-11T12:47:36.888Z,99587.53
2022-12-11T12:49:48.447Z,99588.31
2022-12-11T12:51:53.037Z,99583.28
2022-12-11T12:54:12.316Z,99584.44
2022-12-11T12:56:16.792Z,99599.03
2022-12-11T12:58:27.160Z,99598.47
2022-12-11T13:00:40.161Z,99584.25
2022-12-11T13:02:51.105Z,99603.13
2022-12-11T13:05:18.430Z,99600.19
2022-12-11T13:07:27.479Z,99591.06
2022-12-11T13:09:30.042Z,99607.47
2022-12-11T13:11:35.018Z,99606.09
2022-12-11T13:13:40.911Z,99605.59
2022-12-11T13:15:44.060Z,99609.94
2022-12-11T13:17:47.352Z,99603.13
2022-12-11T13:19:53.219Z,99617.19
2022-12-11T13:22:13.216Z,99610.75
2022-12-11T13:24:22.035Z,99611.00
2022-12-11T13:26:33.485Z,99606.19
2022-12-11T13:28:38.733Z,99601.34
2022-12-11T13:30:41.505Z,99605.94
2022-12-11T13:33:14.461Z,99607.56
2022-12-11T13:35:18.563Z,99613.78
2022-12-11T13:37:36.444Z,99611.16
2022-12-11T13:39:40.447Z,99615.16
2022-12-11T13:41:47.560Z,99618.69
2022-12-11T13:43:51.178Z,99616.00
2022-12-11T13:46:03.339Z,99604.72
2022-12-11T13:48:19.966Z,99615.72
2022-12-11T13:50:29.734Z,99609.09
2022-12-11T13:52:32.896Z,99607.72
2022-12-11T13:54:36.625Z,99614.50
2022-12-11T13:56:39.308Z,99607.00
2022-12-11T13:58:42.088Z,99607.72
2022-12-11T14:01:03.065Z,99610.19
2022-12-11T14:03:09.879Z,99611.00
2022-12-11T14:05:14.024Z,99620.47
2022-12-11T14:07:24.120Z,99621.06
2022-12-11T14:09:28.270Z,99620.81
2022-12-11T14:11:36.289Z,99611.41
2022-12-11T14:13:42.083Z,99615.50
2022-12-11T14:15:45.902Z,99618.69
2022-12-11T14:17:51.881Z,99606.31
2022-12-11T14:19:57.439Z,99625.22
2022-12-11T14:22:08.116Z,99623.94
2022-12-11T14:24:14.441Z,99620.97
2022-12-11T14:26:26.760Z,99626.88
2022-12-11T14:28:37.214Z,99624.16
2022-12-11T14:30:47.585Z,99629.56
2022-12-11T14:32:52.265Z,99621.47
2022-12-11T14:34:56.140Z,99622.28
2022-12-11T14:37:01.340Z,99614.75
2022-12-11T14:39:12.329Z,99628.50
2022-12-11T14:41:30.057Z,99630.16
2022-12-11T14:43:45.941Z,99631.19
2022-12-11T14:45:53.890Z,99633.88
2022-12-11T14:47:58.610Z,99634.16
2022-12-11T14:50:38.237Z,99609.28
2022-12-11T14:52:45.264Z,99626.94
2022-12-11T14:54:57.326Z,99632.09
2022-12-11T14:57:01.921Z,99628.09
2022-12-11T14:59:09.427Z,99628.34
2022-12-11T15:01:30.870Z,99632.91
2022-12-11T15:03:38.977Z,99638.31
2022-12-11T15:05:58.349Z,99625.31
2022-12-11T15:08:11.228Z,99632.09
2022-12-11T15:10:27.533Z,99639.47
2022-12-11T15:12:31.025Z,99626.78
2022-12-11T15:14:34.062Z,99635.38
2022-12-11T15:16:40.717Z,99638.66
2022-12-11T15:18:43.586Z,99634.06
2022-12-11T15:20:54.896Z,99642.75
2022-12-11T15:23:01.631Z,99640.59
2022-12-11T15:25:04.560Z,99632.75
2022-12-11T15:27:21.101Z,99631.44
2022-12-11T15:29:40.328Z,99629.25
2022-12-11T15:31:43.137Z,99641.44
2022-12-11T15:33:48.019Z,99635.75
2022-12-11T15:35:56.530Z,99641.44
2022-12-11T15:38:00.222Z,99631.69
2022-12-11T15:40:05.459Z,99637.88
2022-12-11T15:42:08.272Z,99629.56
2022-12-11T15:44:20.725Z,99638.16
2022-12-11T15:46:23.616Z,99627.59
2022-12-11T15:48:26.317Z,99635.69
2022-12-11T15:50:30.500Z,99634.72
2022-12-11T15:52:34.675Z,99641.44
2022-12-11T15:54:37.772Z,99641.44
2022-12-11T15:56:40.391Z,99633.34
2022-12-11T15:58:45.456Z,99628.75
2022-12-11T16:00:48.140Z,99634.16
2022-12-11T16:02:52.284Z,99633.81
2022-12-11T16:04:55.077Z,99638.16
2022-12-11T16:06:57.760Z,99631.38
2022-12-11T16:09:01.361Z,99642.97
2022-12-11T16:11:04.126Z,99636.19
2022-12-11T16:13:06.975Z,99637.59
2022-12-11T16:15:11.467Z,99639.69
2022-12-11T16:17:15.367Z,99640.50
2022-12-11T16:19:18.010Z,99630.72
2022-12-11T16:21:21.729Z,99637.16
2022-12-11T16:23:24.595Z,99643.72
2022-12-11T16:25:28.031Z,99641.25
2022-12-11T16:27:30.635Z,99646.41
2022-12-11T16:29:41.888Z,99649.91
2022-12-11T16:31:44.538Z,99646.19
2022-12-11T16:33:47.204Z,99648.38
2022-12-11T16:35:49.898Z,99644.28
2022-12-11T16:37:53.588Z,99637.25
2022-12-11T16:39:56.565Z,99649.13
2022-12-11T16:41:59.240Z,99640.69
2022-12-11T16:44:02.424Z,99641.75
2022-12-11T16:46:05.334Z,99643.38
2022-12-11T16:48:07.947Z,99642.56
2022-12-11T16:50:12.070Z,99646.06
2022-12-11T16:52:20.480Z,99650.09
2022-12-11T16:54:24.744Z,99646.56
2022-12-11T16:56:27.507Z,99630.22
2022-12-11T16:58:30.133Z,99652.78
2022-12-11T17:00:32.723Z,99640.13
2022-12-11T17:02:36.212Z,99650.41
2022-12-11T17:04:39.215Z,99641.75
2022-12-11T17:06:41.863Z,99641.75
2022-12-11T17:08:44.839Z,99654.16
2022-12-11T17:10:53.481Z,99651.38
2022-12-11T17:12:56.264Z,99652.19
2022-12-11T17:14:58.942Z,99643.78
2022-12-11T17:17:01.551Z,99644.38
2022-12-11T17:19:07.387Z,99650.34
2022-12-11T17:21:15.852Z,99672.97
2022-12-11T17:23:18.991Z,99665.38
2022-12-11T17:25:22.685Z,99672.75
2022-12-11T17:27:25.448Z,99675.09
2022-12-11T17:29:28.246Z,99676.19
2022-12-11T17:31:30.994Z,99668.56
2022-12-11T17:33:33.716Z,99672.09
2022-12-11T17:35:36.651Z,99669.97
2022-12-11T17:37:39.202Z,99675.59
2022-12-11T17:39:42.005Z,99670.53
2022-12-11T17:41:44.683Z,99660.56
2022-12-11T17:43:48.418Z,99678.16
2022-12-11T17:45:55.559Z,99675.69
2022-12-11T17:47:58.335Z,99664.88
2022-12-11T17:50:00.960Z,99673.47
2022-12-11T17:52:04.072Z,99666.47
2022-12-11T17:54:06.731Z,99671.84
2022-12-11T17:56:09.621Z,99671.28
2022-12-11T17:58:14.393Z,99668.81
2022-12-11T18:00:17.287Z,99678.78
2022-12-11T18:02:29.011Z,99676.91
2022-12-11T18:04:31.670Z,99687.63
2022-12-11T18:06:34.233Z,99697.25
2022-12-11T18:08:37.198Z,99692.94
2022-12-11T18:10:41.720Z,99702.06
2022-12-11T18:12:44.304Z,99686.47
2022-12-11T18:14:47.027Z,99688.84
2022-12-11T18:16:49.754Z,99683.09
2022-12-11T18:18:53.119Z,99690.38
2022-12-11T18:20:55.830Z,99681.69
2022-12-11T18:22:58.790Z,99687.91
2022-12-11T18:25:05.044Z,99682.50
2022-12-11T18:27:14.700Z,99681.34
2022-12-11T18:29:17.524Z,99681.63
2022-12-11T18:31:21.827Z,99681.47
2022-12-11T18:33:24.560Z,99681.78
2022-12-11T18:35:27.944Z,99695.84
2022-12-11T18:37:31.844Z,99693.16
2022-12-11T18:39:34.677Z,99697.75
2022-12-11T18:41:37.283Z,99691.75
2022-12-11T18:43:41.618Z,99690.94
2022-12-11T18:45:47.379Z,99688.97
2022-12-11T18:47:52.125Z,99690.38
2022-12-11T18:49:54.816Z,99691.41
2022-12-11T18:51:57.379Z,99701.41
2022-12-11T18:53:59.996Z,99703.03
2022-12-11T18:56:10.309Z,99716.75
2022-12-11T18:58:14.713Z,99712.19
2022-12-11T19:00:18.295Z,99711.94
2022-12-11T19:02:22.069Z,99709.25
2022-12-11T19:04:26.414Z,99689.22
2022-12-11T19:06:30.617Z,99698.97
2022-12-11T19:08:33.715Z,99681.84
2022-12-11T19:10:42.287Z,99685.69
2022-12-11T19:12:46.321Z,99685.84
2022-12-11T19:14:49.102Z,99704.22
2022-12-11T19:16:51.735Z,99703.19
2022-12-11T19:18:54.378Z,99704.34
2022-12-11T19:21:08.065Z,99710.31
2022-12-11T19:23:12.574Z,99704.91
2022-12-11T19:25:15.746Z,99696.34
2022-12-11T19:27:18.376Z,99703.59
2022-12-11T19:29:29.796Z,99704.34
2022-12-11T19:31:33.605Z,99710.31
2022-12-11T19:33:36.263Z,99722.25
2022-12-11T19:35:39.055Z,99712.03
2022-12-11T19:37:41.649Z,99717.44
2022-12-11T19:39:44.175Z,99724.72
2022-12-11T19:41:47.131Z,99716.63
2022-12-11T19:43:50.743Z,99710.97
2022-12-11T19:45:53.464Z,99709.84
2022-12-11T19:47:56.131Z,99714.16
2022-12-11T19:49:58.730Z,99710.88
2022-12-11T19:52:01.489Z,99712.53
2022-12-11T19:54:04.972Z,99710.41
2022-12-11T19:56:08.577Z,99705.25
2022-12-11T19:58:11.184Z,99700.59
2022-12-11T20:00:14.347Z,99693.88
2022-12-11T20:02:17.097Z,99708.44
2022-12-11T20:04:20.520Z,99698.19
2022-12-11T20:06:24.120Z,99695.69
2022-12-11T20:08:44.109Z,99699.41
2022-12-11T20:10:47.092Z,99708.31
2022-12-11T20:12:49.603Z,99714.06
2022-12-11T20:14:52.112Z,99709.75
2022-12-11T20:17:13.831Z,99706.69
2022-12-11T20:19:17.473Z,99706.69
2022-12-11T20:21:20.493Z,99710.69
2022-12-11T20:23:23.213Z,99702.38
2022-12-11T20:25:27.251Z,99694.28
2022-12-11T20:27:29.928Z,99708.81
2022-12-11T20:29:32.616Z,99713.16
2022-12-11T20:31:36.395Z,99729.34
2022-12-11T20:33:39.296Z,99720.41
2022-12-11T20:35:42.449Z,99724.50
2022-12-11T20:37:45.284Z,99714.56
2022-12-11T20:39:47.876Z,99725.94
2022-12-11T20:41:50.583Z,99726.97
2022-12-11T20:43:54.429Z,99721.00
2022-12-11T20:45:57.041Z,99732.84
2022-12-11T20:47:59.710Z,99738.84
2022-12-11T20:50:02.297Z,99736.72
2022-12-11T20:52:05.799Z,99745.84
2022-12-11T20:54:08.794Z,99755.25
2022-12-11T20:56:18.805Z,99755.03
2022-12-11T20:58:21.586Z,99763.13
2022-12-11T21:00:24.803Z,99757.38
2022-12-11T21:02:30.925Z,99761.47
2022-12-11T21:04:34.377Z,99759.84
2022-12-11T21:06:38.924Z,99758.19
2022-12-11T21:08:41.484Z,99769.81
2022-12-11T21:10:46.616Z,99765.69
2022-12-11T21:12:49.286Z,99757.59
2022-12-11T21:14:51.911Z,99773.22
2022-12-11T21:16:54.518Z,99761.13
2022-12-11T21:18:58.981Z,99769.22
2022-12-11T21:21:01.632Z,99771.34
2022-12-11T21:23:04.514Z,99772.38
2022-12-11T21:25:07.311Z,99770.25
2022-12-11T21:27:09.951Z,99759.38
2022-12-11T21:29:12.977Z,99767.69
2022-12-11T21:31:18.554Z,99758.34
2022-12-11T21:33:21.470Z,99754.00
2022-12-11T21:35:24.230Z,99753.19
2022-12-11T21:37:26.967Z,99748.81
2022-12-11T21:39:32.544Z,99741.22
2022-12-11T21:41:39.239Z,99757.50
2022-12-11T21:44:30.968Z,99744.84
2022-12-11T21:46:10.692Z,99750.47
2022-12-11T21:48:14.111Z,99737.00
2022-12-11T21:50:17.538Z,99737.94
2022-12-11T21:52:20.719Z,99744.72
2022-12-11T21:54:23.568Z,99739.69
2022-12-11T21:56:28.516Z,99750.38
2022-12-11T21:58:31.067Z,99747.44
2022-12-11T22:00:36.258Z,99741.13
2022-12-11T22:02:41.095Z,99757.53
2022-12-11T22:04:43.850Z,99757.78
2022-12-11T22:06:47.710Z,99753.44
2022-12-11T22:08:50.897Z,99748.75
2022-12-11T22:10:53.698Z,99741.50
2022-12-11T22:12:56.424Z,99753.81
2022-12-11T22:14:59.138Z,99761.34
2022-12-11T22:17:01.858Z,99762.72
2022-12-11T22:19:04.539Z,99760.75
2022-12-11T22:21:07.413Z,99750.28
2022-12-11T22:23:10.104Z,99754.78
2022-12-11T22:25:13.015Z,99745.75
2022-12-11T22:27:20.434Z,99747.84
2022-12-11T22:29:26.010Z,99751.59
2022-12-11T22:31:28.547Z,99766.47
2022-12-11T22:33:31.085Z,99761.44
2022-12-11T22:35:33.763Z,99756.84
2022-12-11T22:37:36.388Z,99753.81
2022-12-11T22:39:38.963Z,99756.44
2022-12-11T22:41:44.797Z,99754.53
2022-12-11T22:43:47.431Z,99750.19
2022-12-11T22:45:50.129Z,99755.25
2022-12-11T22:47:52.692Z,99761.22
2022-12-11T22:49:55.376Z,99759.84
2022-12-11T22:51:58.670Z,99752.47
2022-12-11T22:54:01.215Z,99770.25
2022-12-11T22:56:09.087Z,99768.25
2022-12-11T22:58:15.091Z,99779.28
2022-12-11T23:00:21.510Z,99783.03
2022-12-11T23:02:24.637Z,99780.69
2022-12-11T23:04:27.559Z,99781.16
2022-12-11T23:06:30.276Z,99781.63
2022-12-11T23:08:33.285Z,99787.34
2022-12-11T23:10:36.057Z,99785.97
2022-12-11T23:12:38.642Z,99786.44
2022-12-11T23:14:41.328Z,99777.78
2022-12-11T23:16:44.877Z,99789.50
2022-12-11T23:18:47.417Z,99780.81
2022-12-11T23:20:50.179Z,99796.41
2022-12-11T23:22:52.960Z,99796.41
2022-12-11T23:24:55.829Z,99793.13
2022-12-11T23:26:58.425Z,99803.91
2022-12-11T23:29:01.662Z,99800.13
2022-12-11T23:31:05.219Z,99800.72
2022-12-11T23:33:08.523Z,99798.97
2022-12-11T23:35:11.557Z,99821.84
2022-12-11T23:37:14.534Z,99813.88
2022-12-11T23:39:17.133Z,99816.56
2022-12-11T23:41:20.389Z,99804.72
2022-12-11T23:43:23.166Z,99788.06
2022-12-11T23:45:25.867Z,99798.16
2022-12-11T23:47:28.507Z,99794.63
2022-12-11T23:49:31.131Z,99790.53
2022-12-11T23:51:33.933Z,99788.56
2022-12-11T23:53:36.638Z,99780.25
2022-12-11T23:55:40.571Z,99797.13
2022-12-11T23:57:43.192Z,99780.84
2022-12-11T23:59:45.787Z,99779.19
